Weather at Whitehouse Farm Helicopter Base

Public forecast

Using degrees Celsius for public forecast. Weather courtesy of forecast.io.

Closest aviation weather report (METAR) to Whitehouse Farm Helicopter Base

Closest report is RNAS Yeovilton, 11.3 nm (21.0 km) NE. Retrieved 2021/04/16 19:50 UTC (15 minutes ago):

EGDY 161950Z AUTO 04007KT 9999 FEW050/// 05/M01 Q1030

Closest aviation forecast (TAF) to Whitehouse Farm Helicopter Base

Forecast is more than 12 hours old.

Closest forecast is RNAS Yeovilton, 11.3 nm (21.0 km) NE. Retrieved 2020/10/05 06:30 UTC (6 months ago):

TAF TAF EGDY 051025Z 0506/0518 CNL